createdAt,value
2023-04-29T00:02:26.721Z,87.71
2023-04-29T00:07:25.487Z,87.76
2023-04-29T00:12:24.427Z,88.26
2023-04-29T00:17:23.341Z,87.96
2023-04-29T00:22:22.289Z,88.26
2023-04-29T00:27:21.322Z,88.68
2023-04-29T00:32:20.168Z,89.09
2023-04-29T00:37:19.234Z,89.50
2023-04-29T00:42:18.305Z,89.50
2023-04-29T00:47:16.992Z,89.80
2023-04-29T00:52:15.976Z,88.98
2023-04-29T00:57:15.011Z,90.11
2023-04-29T01:02:13.896Z,90.21
2023-04-29T01:07:12.789Z,90.31
2023-04-29T01:12:11.775Z,91.03
2023-04-29T01:17:10.676Z,91.17
2023-04-29T01:22:09.621Z,92.46
2023-04-29T01:27:08.587Z,92.97
2023-04-29T01:32:07.537Z,93.79
2023-04-29T01:37:06.504Z,93.79
2023-04-29T01:42:05.427Z,93.74
2023-04-29T01:47:04.516Z,93.33
2023-04-29T01:52:03.310Z,93.13
2023-04-29T01:57:02.310Z,93.44
2023-04-29T02:02:01.224Z,93.65
2023-04-29T02:07:00.162Z,93.91
2023-04-29T02:11:59.117Z,94.52
2023-04-29T02:16:58.039Z,94.46
2023-04-29T02:21:57.073Z,94.56
2023-04-29T02:26:56.097Z,95.07
2023-04-29T02:31:55.099Z,95.07
2023-04-29T02:36:53.812Z,95.59
2023-04-29T02:41:52.793Z,96.20
2023-04-29T02:46:51.819Z,95.84
2023-04-29T02:51:50.666Z,96.96
2023-04-29T02:56:49.688Z,97.06
2023-04-29T03:01:48.585Z,97.06
2023-04-29T03:06:47.546Z,97.47
2023-04-29T03:11:46.463Z,97.47
2023-04-29T03:16:45.551Z,96.86
2023-04-29T03:21:44.346Z,95.32
2023-04-29T03:26:43.326Z,95.43
2023-04-29T03:31:42.430Z,95.63
2023-04-29T03:36:41.194Z,95.67
2023-04-29T03:41:40.203Z,96.66
2023-04-29T03:46:39.184Z,97.11
2023-04-29T03:51:38.078Z,97.52
2023-04-29T03:56:36.962Z,98.39
2023-04-29T04:01:35.950Z,98.60
2023-04-29T04:06:34.886Z,98.80
2023-04-29T04:11:33.836Z,98.60
2023-04-29T04:16:32.838Z,98.80
2023-04-29T04:21:31.726Z,98.60
2023-04-29T04:26:30.646Z,98.70
2023-04-29T04:31:29.689Z,98.75
2023-04-29T04:36:28.558Z,98.35
2023-04-29T04:41:27.550Z,98.55
2023-04-29T04:46:26.436Z,98.45
2023-04-29T04:51:25.399Z,98.14
2023-04-29T04:56:24.351Z,98.20
2023-04-29T05:01:23.372Z,97.89
2023-04-29T05:06:22.271Z,98.20
2023-04-29T05:11:21.200Z,97.79
2023-04-29T05:16:20.217Z,97.58
2023-04-29T05:21:19.089Z,97.24
2023-04-29T05:26:18.043Z,97.44
2023-04-29T05:31:17.026Z,97.13
2023-04-29T05:36:15.953Z,97.24
2023-04-29T05:41:15.141Z,96.92
2023-04-29T05:46:13.938Z,96.72
2023-04-29T05:51:12.766Z,96.42
2023-04-29T05:56:11.768Z,96.72
2023-04-29T06:01:10.679Z,96.62
2023-04-29T06:06:09.668Z,96.83
2023-04-29T06:11:08.565Z,96.72
2023-04-29T06:16:07.534Z,96.27
2023-04-29T06:21:06.471Z,96.47
2023-04-29T06:26:05.487Z,95.81
2023-04-29T06:31:04.468Z,95.41
2023-04-29T06:36:03.321Z,94.29
2023-04-29T06:41:02.255Z,93.51
2023-04-29T06:46:01.245Z,93.31
2023-04-29T06:51:00.226Z,93.00
2023-04-29T06:55:59.094Z,93.10
2023-04-29T07:00:58.179Z,93.51
2023-04-29T07:05:57.021Z,93.86
2023-04-29T07:10:55.970Z,94.48
2023-04-29T07:15:54.894Z,94.89
2023-04-29T07:20:53.928Z,94.98
2023-04-29T07:25:53.139Z,95.39
2023-04-29T07:30:51.767Z,95.80
2023-04-29T07:35:50.700Z,96.26
2023-04-29T07:40:49.642Z,96.36
2023-04-29T07:45:48.621Z,96.26
2023-04-29T07:50:47.573Z,96.05
2023-04-29T07:55:46.493Z,96.46
2023-04-29T08:00:45.470Z,96.56
2023-04-29T08:05:44.649Z,95.85
2023-04-29T08:10:43.343Z,95.23
2023-04-29T08:15:42.302Z,95.03
2023-04-29T08:20:41.315Z,94.93
2023-04-29T08:25:40.169Z,94.73
2023-04-29T08:30:39.131Z,94.87
2023-04-29T08:35:38.092Z,94.15
2023-04-29T08:40:37.021Z,94.67
2023-04-29T08:45:36.077Z,94.46
2023-04-29T08:50:34.934Z,94.40
2023-04-29T08:55:33.873Z,94.81
2023-04-29T09:00:33.048Z,94.75
2023-04-29T09:05:31.798Z,94.85
2023-04-29T09:10:30.748Z,94.65
2023-04-29T09:15:29.695Z,95.10
2023-04-29T09:20:28.623Z,95.51
2023-04-29T09:25:27.552Z,95.62
2023-04-29T09:30:26.511Z,95.72
2023-04-29T09:35:25.546Z,95.66
2023-04-29T09:40:24.408Z,95.56
2023-04-29T09:45:23.384Z,95.97
2023-04-29T09:50:22.292Z,96.28
2023-04-29T09:55:21.253Z,96.38
2023-04-29T10:00:20.243Z,96.48
2023-04-29T10:05:19.189Z,95.97
2023-04-29T10:10:18.138Z,95.87
2023-04-29T10:15:17.074Z,95.46
2023-04-29T10:20:16.097Z,95.25
2023-04-29T10:25:14.937Z,95.25
2023-04-29T10:30:13.895Z,94.95
2023-04-29T10:35:12.843Z,94.54
2023-04-29T10:40:11.784Z,94.23
2023-04-29T10:45:11.224Z,94.23
2023-04-29T10:50:09.623Z,94.39
2023-04-29T10:55:08.631Z,93.26
2023-04-29T11:00:07.718Z,93.16
2023-04-29T11:05:06.458Z,93.47
2023-04-29T11:10:05.538Z,93.57
2023-04-29T11:15:04.725Z,93.57
2023-04-29T11:20:03.387Z,93.47
2023-04-29T11:25:02.267Z,93.12
2023-04-29T11:30:01.244Z,93.01
2023-04-29T11:35:00.160Z,92.36
2023-04-29T11:39:59.161Z,91.85
2023-04-29T11:44:58.106Z,92.46
2023-04-29T11:49:57.015Z,92.46
2023-04-29T11:54:55.981Z,91.19
2023-04-29T11:59:54.913Z,90.02
2023-04-29T12:04:54.574Z,89.17
2023-04-29T12:09:52.773Z,88.14
2023-04-29T12:14:52.293Z,87.94
2023-04-29T12:19:50.682Z,87.49
2023-04-29T12:24:49.602Z,85.92
2023-04-29T12:29:48.565Z,85.41
2023-04-29T12:34:47.521Z,86.53
2023-04-29T12:39:46.474Z,85.30
2023-04-29T12:44:45.460Z,84.39
2023-04-29T12:49:44.360Z,83.37
2023-04-29T12:54:43.401Z,83.87
2023-04-29T12:59:42.301Z,84.80
2023-04-29T13:04:43.824Z,85.16
2023-04-29T13:09:40.151Z,83.59
2023-04-29T13:14:39.102Z,82.23
2023-04-29T13:19:50.237Z,81.38
2023-04-29T13:24:37.021Z,81.17
2023-04-29T13:29:35.948Z,79.03
2023-04-29T13:34:34.957Z,78.80
2023-04-29T13:39:37.954Z,79.30
2023-04-29T13:44:42.473Z,77.87
2023-04-29T13:49:53.932Z,76.82
2023-04-29T13:59:42.065Z,75.91
2023-04-29T14:04:28.743Z,75.26
2023-04-29T14:09:27.568Z,74.38
2023-04-29T14:14:26.504Z,74.65
2023-04-29T14:19:25.445Z,73.47
2023-04-29T14:24:24.368Z,73.13
2023-04-29T14:29:23.410Z,72.78
2023-04-29T14:34:22.362Z,71.77
2023-04-29T14:39:21.247Z,71.67
2023-04-29T14:44:20.181Z,72.28
2023-04-29T14:49:19.258Z,72.38
2023-04-29T14:54:18.094Z,70.75
2023-04-29T14:59:17.026Z,71.53
2023-04-29T15:04:16.024Z,71.53
2023-04-29T15:09:14.972Z,71.77
2023-04-29T15:14:13.862Z,72.01
2023-04-29T15:19:12.803Z,72.01
2023-04-29T15:24:11.748Z,72.55
2023-04-29T15:29:10.777Z,72.55
2023-04-29T15:34:09.717Z,72.55
2023-04-29T15:39:08.823Z,73.16
2023-04-29T15:44:07.578Z,73.06
2023-04-29T15:49:06.506Z,73.36
2023-04-29T15:54:05.432Z,73.77
2023-04-29T15:59:04.365Z,74.18
2023-04-29T16:04:03.359Z,74.82
2023-04-29T16:09:02.289Z,74.93
2023-04-29T16:14:01.441Z,75.43
2023-04-29T16:19:00.207Z,75.84
2023-04-29T16:23:59.109Z,76.04
2023-04-29T16:28:58.096Z,76.15
2023-04-29T16:33:56.998Z,76.45
2023-04-29T16:38:55.987Z,77.26
2023-04-29T16:43:55.053Z,78.39
2023-04-29T16:48:53.841Z,77.26
2023-04-29T16:53:52.784Z,76.42
2023-04-29T16:58:51.811Z,74.89
2023-04-29T17:03:50.700Z,73.16
2023-04-29T17:08:51.442Z,73.06
2023-04-29T17:13:48.612Z,70.62
2023-04-29T17:18:47.602Z,70.21
2023-04-29T17:23:46.680Z,69.29
2023-04-29T17:28:45.443Z,68.27
2023-04-29T17:33:44.491Z,67.57
2023-04-29T17:38:43.346Z,67.60
2023-04-29T17:43:42.351Z,67.69
2023-04-29T17:48:41.204Z,68.01
2023-04-29T17:53:40.242Z,67.39
2023-04-29T17:58:39.104Z,67.29
2023-04-29T18:03:38.264Z,67.02
2023-04-29T18:08:37.092Z,66.91
2023-04-29T18:13:35.929Z,67.52
2023-04-29T18:18:34.923Z,67.12
2023-04-29T18:23:33.867Z,67.32
2023-04-29T18:28:32.859Z,67.96
2023-04-29T18:33:31.839Z,68.68
2023-04-29T18:38:30.844Z,69.19
2023-04-29T18:43:29.654Z,69.39
2023-04-29T18:48:28.707Z,70.04
2023-04-29T18:53:27.616Z,69.93
2023-04-29T18:58:26.515Z,70.04
2023-04-29T19:03:25.440Z,70.24
2023-04-29T19:08:24.398Z,70.37
2023-04-29T19:13:23.340Z,70.37
2023-04-29T19:18:22.284Z,70.48
2023-04-29T19:23:21.253Z,71.91
2023-04-29T19:28:20.233Z,72.72
2023-04-29T19:33:19.359Z,73.13
2023-04-29T19:38:18.114Z,72.75
2023-04-29T19:43:17.040Z,72.75
2023-04-29T19:48:15.987Z,73.27
2023-04-29T19:53:14.928Z,73.36
2023-04-29T19:58:13.895Z,73.77
2023-04-29T20:03:12.909Z,73.77
2023-04-29T20:08:11.795Z,73.88
2023-04-29T20:13:10.764Z,74.01
2023-04-29T20:18:09.673Z,73.71
2023-04-29T20:23:08.633Z,73.71
2023-04-29T20:28:07.587Z,73.54
2023-04-29T20:33:08.615Z,73.64
2023-04-29T20:38:05.455Z,73.64
2023-04-29T20:43:04.428Z,73.88
2023-04-29T20:48:03.398Z,73.88
2023-04-29T20:53:02.337Z,74.08
2023-04-29T20:58:01.291Z,74.11
2023-04-29T21:03:00.398Z,74.56
2023-04-29T21:07:59.228Z,74.66
2023-04-29T21:12:58.130Z,74.56
2023-04-29T21:17:57.189Z,74.46
2023-04-29T21:22:56.006Z,74.56
2023-04-29T21:27:54.963Z,74.08
2023-04-29T21:32:53.981Z,73.94
2023-04-29T21:37:52.863Z,73.98
2023-04-29T21:42:51.767Z,73.78
2023-04-29T21:47:50.885Z,74.08
2023-04-29T21:52:49.701Z,74.02
2023-04-29T21:57:48.635Z,74.11
2023-04-29T22:02:47.860Z,74.02
2023-04-29T22:07:46.548Z,74.46
2023-04-29T22:12:45.507Z,74.87
2023-04-29T22:17:44.485Z,74.87
2023-04-29T22:22:43.378Z,74.97
2023-04-29T22:27:42.405Z,75.52
2023-04-29T22:32:41.306Z,75.82
2023-04-29T22:37:40.298Z,76.07
2023-04-29T22:42:39.154Z,76.27
2023-04-29T22:47:38.331Z,76.58
2023-04-29T22:52:37.065Z,77.03
2023-04-29T22:57:36.005Z,77.23
2023-04-29T23:02:34.988Z,77.64
2023-04-29T23:07:34.071Z,77.88
2023-04-29T23:12:32.869Z,78.19
2023-04-29T23:17:31.786Z,78.29
2023-04-29T23:22:30.754Z,78.39
2023-04-29T23:27:29.737Z,78.64
2023-04-29T23:32:28.698Z,78.74
2023-04-29T23:37:27.689Z,79.08
2023-04-29T23:42:26.533Z,79.70
2023-04-29T23:47:25.518Z,79.74
2023-04-29T23:52:24.447Z,79.63
2023-04-29T23:57:23.494Z,79.63
